sensor_id;sensor_type;location;lat;lon;timestamp;temperature;humidity
18823;DHT22;9540;51.550;7.980;2023-10-08T00:01:16;18.30;99.90
18823;DHT22;9540;51.550;7.980;2023-10-08T00:03:44;18.30;99.90
18823;DHT22;9540;51.550;7.980;2023-10-08T00:06:14;18.30;99.90
18823;DHT22;9540;51.550;7.980;2023-10-08T00:08:42;18.30;99.90
18823;DHT22;9540;51.550;7.980;2023-10-08T00:11:09;18.20;99.90
18823;DHT22;9540;51.550;7.980;2023-10-08T00:13:37;18.30;99.90
18823;DHT22;9540;51.550;7.980;2023-10-08T00:16:08;18.20;99.90
18823;DHT22;9540;51.550;7.980;2023-10-08T00:18:37;18.20;99.90
18823;DHT22;9540;51.550;7.980;2023-10-08T00:21:06;18.20;99.90
18823;DHT22;9540;51.550;7.980;2023-10-08T00:23:43;18.20;99.90
18823;DHT22;9540;51.550;7.980;2023-10-08T00:26:18;18.20;99.90
18823;DHT22;9540;51.550;7.980;2023-10-08T00:28:54;18.20;99.90
18823;DHT22;9540;51.550;7.980;2023-10-08T00:31:23;18.20;99.90
18823;DHT22;9540;51.550;7.980;2023-10-08T00:33:56;18.10;99.90
18823;DHT22;9540;51.550;7.980;2023-10-08T00:36:23;18.10;99.90
18823;DHT22;9540;51.550;7.980;2023-10-08T00:38:50;18.10;99.90
18823;DHT22;9540;51.550;7.980;2023-10-08T00:41:19;18.10;99.90
18823;DHT22;9540;51.550;7.980;2023-10-08T00:43:48;18.10;99.90
18823;DHT22;9540;51.550;7.980;2023-10-08T00:46:17;18.20;99.90
18823;DHT22;9540;51.550;7.980;2023-10-08T00:48:52;18.20;99.90
18823;DHT22;9540;51.550;7.980;2023-10-08T00:51:20;18.10;99.90
18823;DHT22;9540;51.550;7.980;2023-10-08T00:54:00;18.10;99.90
18823;DHT22;9540;51.550;7.980;2023-10-08T00:56:32;18.10;99.90
18823;DHT22;9540;51.550;7.980;2023-10-08T00:59:15;18.10;99.90
18823;DHT22;9540;51.550;7.980;2023-10-08T01:01:47;18.10;99.90
18823;DHT22;9540;51.550;7.980;2023-10-08T01:04:19;18.10;99.90
18823;DHT22;9540;51.550;7.980;2023-10-08T01:06:50;18.10;99.90
18823;DHT22;9540;51.550;7.980;2023-10-08T01:09:20;18.10;99.90
18823;DHT22;9540;51.550;7.980;2023-10-08T01:12:13;18.10;99.90
18823;DHT22;9540;51.550;7.980;2023-10-08T01:14:41;18.10;99.90
18823;DHT22;9540;51.550;7.980;2023-10-08T01:17:14;18.10;99.90
18823;DHT22;9540;51.550;7.980;2023-10-08T01:19:43;18.10;99.90
18823;DHT22;9540;51.550;7.980;2023-10-08T01:22:17;18.00;99.90
18823;DHT22;9540;51.550;7.980;2023-10-08T01:24:44;18.10;99.90
18823;DHT22;9540;51.550;7.980;2023-10-08T01:27:14;18.10;99.90
18823;DHT22;9540;51.550;7.980;2023-10-08T01:29:47;18.10;99.90
18823;DHT22;9540;51.550;7.980;2023-10-08T01:32:15;18.10;99.90
18823;DHT22;9540;51.550;7.980;2023-10-08T01:34:43;18.00;99.90
18823;DHT22;9540;51.550;7.980;2023-10-08T01:37:13;18.00;99.90
18823;DHT22;9540;51.550;7.980;2023-10-08T01:39:44;18.00;99.90
18823;DHT22;9540;51.550;7.980;2023-10-08T01:42:11;18.00;99.90
18823;DHT22;9540;51.550;7.980;2023-10-08T01:44:44;17.90;99.90
18823;DHT22;9540;51.550;7.980;2023-10-08T01:47:13;17.90;99.90
18823;DHT22;9540;51.550;7.980;2023-10-08T01:49:42;17.90;99.90
18823;DHT22;9540;51.550;7.980;2023-10-08T01:52:10;17.90;99.90
18823;DHT22;9540;51.550;7.980;2023-10-08T01:54:46;17.90;99.90
18823;DHT22;9540;51.550;7.980;2023-10-08T01:57:13;17.90;99.90
18823;DHT22;9540;51.550;7.980;2023-10-08T01:59:40;17.90;99.90
18823;DHT22;9540;51.550;7.980;2023-10-08T02:02:09;17.90;99.90
18823;DHT22;9540;51.550;7.980;2023-10-08T02:04:38;18.00;99.90
18823;DHT22;9540;51.550;7.980;2023-10-08T02:07:06;18.00;99.90
18823;DHT22;9540;51.550;7.980;2023-10-08T02:09:34;17.90;99.90
18823;DHT22;9540;51.550;7.980;2023-10-08T02:12:03;17.80;99.90
18823;DHT22;9540;51.550;7.980;2023-10-08T02:14:30;17.80;99.90
18823;DHT22;9540;51.550;7.980;2023-10-08T02:16:58;17.90;99.90
18823;DHT22;9540;51.550;7.980;2023-10-08T02:19:29;17.90;99.90
18823;DHT22;9540;51.550;7.980;2023-10-08T02:21:57;17.90;99.90
18823;DHT22;9540;51.550;7.980;2023-10-08T02:24:25;17.90;99.90
18823;DHT22;9540;51.550;7.980;2023-10-08T02:26:52;17.90;99.90
18823;DHT22;9540;51.550;7.980;2023-10-08T02:29:25;17.80;99.90
18823;DHT22;9540;51.550;7.980;2023-10-08T02:31:52;17.80;99.90
18823;DHT22;9540;51.550;7.980;2023-10-08T02:34:19;17.80;99.90
18823;DHT22;9540;51.550;7.980;2023-10-08T02:36:47;17.80;99.90
18823;DHT22;9540;51.550;7.980;2023-10-08T02:39:14;17.70;99.90
18823;DHT22;9540;51.550;7.980;2023-10-08T02:41:47;17.70;99.90
18823;DHT22;9540;51.550;7.980;2023-10-08T02:44:15;17.70;99.90
18823;DHT22;9540;51.550;7.980;2023-10-08T02:46:44;17.60;99.90
18823;DHT22;9540;51.550;7.980;2023-10-08T02:49:13;17.50;99.90
18823;DHT22;9540;51.550;7.980;2023-10-08T02:51:46;17.40;99.90
18823;DHT22;9540;51.550;7.980;2023-10-08T02:54:16;17.30;99.90
18823;DHT22;9540;51.550;7.980;2023-10-08T02:56:44;17.30;99.90
18823;DHT22;9540;51.550;7.980;2023-10-08T02:59:12;17.20;99.90
18823;DHT22;9540;51.550;7.980;2023-10-08T03:01:40;17.20;99.90
18823;DHT22;9540;51.550;7.980;2023-10-08T03:04:10;17.20;99.90
18823;DHT22;9540;51.550;7.980;2023-10-08T03:06:44;17.10;99.90
18823;DHT22;9540;51.550;7.980;2023-10-08T03:09:15;17.10;99.90
18823;DHT22;9540;51.550;7.980;2023-10-08T03:11:47;17.10;99.90
18823;DHT22;9540;51.550;7.980;2023-10-08T03:14:15;17.10;99.90
18823;DHT22;9540;51.550;7.980;2023-10-08T03:16:48;17.10;99.90
18823;DHT22;9540;51.550;7.980;2023-10-08T03:19:17;17.10;99.90
18823;DHT22;9540;51.550;7.980;2023-10-08T03:21:46;17.00;99.90
18823;DHT22;9540;51.550;7.980;2023-10-08T03:24:18;17.00;99.90
18823;DHT22;9540;51.550;7.980;2023-10-08T03:26:56;17.00;99.90
18823;DHT22;9540;51.550;7.980;2023-10-08T03:29:32;17.00;99.90
18823;DHT22;9540;51.550;7.980;2023-10-08T03:32:06;17.00;99.90
18823;DHT22;9540;51.550;7.980;2023-10-08T03:34:40;17.00;99.90
18823;DHT22;9540;51.550;7.980;2023-10-08T03:37:10;17.00;99.90
18823;DHT22;9540;51.550;7.980;2023-10-08T03:39:45;17.10;99.90
18823;DHT22;9540;51.550;7.980;2023-10-08T03:42:26;17.10;99.90
18823;DHT22;9540;51.550;7.980;2023-10-08T03:45:00;17.10;99.90
18823;DHT22;9540;51.550;7.980;2023-10-08T03:47:36;17.20;99.90
18823;DHT22;9540;51.550;7.980;2023-10-08T03:50:07;17.20;99.90
18823;DHT22;9540;51.550;7.980;2023-10-08T03:52:35;17.20;99.90
18823;DHT22;9540;51.550;7.980;2023-10-08T03:55:05;17.20;99.90
18823;DHT22;9540;51.550;7.980;2023-10-08T03:57:47;17.10;99.90
18823;DHT22;9540;51.550;7.980;2023-10-08T04:00:22;17.10;99.90
18823;DHT22;9540;51.550;7.980;2023-10-08T04:02:57;17.10;99.90
18823;DHT22;9540;51.550;7.980;2023-10-08T04:05:28;17.10;99.90
18823;DHT22;9540;51.550;7.980;2023-10-08T04:08:06;17.10;99.90
18823;DHT22;9540;51.550;7.980;2023-10-08T04:10:45;17.00;99.90
18823;DHT22;9540;51.550;7.980;2023-10-08T04:13:34;17.00;99.90
18823;DHT22;9540;51.550;7.980;2023-10-08T04:16:04;16.90;99.90
18823;DHT22;9540;51.550;7.980;2023-10-08T04:18:32;16.90;99.90
18823;DHT22;9540;51.550;7.980;2023-10-08T04:21:07;16.90;99.90
18823;DHT22;9540;51.550;7.980;2023-10-08T04:23:39;17.00;99.90
18823;DHT22;9540;51.550;7.980;2023-10-08T04:26:06;17.00;99.90
18823;DHT22;9540;51.550;7.980;2023-10-08T04:28:34;17.00;99.90
18823;DHT22;9540;51.550;7.980;2023-10-08T04:31:01;17.00;99.90
18823;DHT22;9540;51.550;7.980;2023-10-08T04:33:41;17.00;99.90
18823;DHT22;9540;51.550;7.980;2023-10-08T04:36:09;16.90;99.90
18823;DHT22;9540;51.550;7.980;2023-10-08T04:38:44;16.90;99.90
18823;DHT22;9540;51.550;7.980;2023-10-08T04:41:14;16.90;99.90
18823;DHT22;9540;51.550;7.980;2023-10-08T04:43:45;16.90;99.90
18823;DHT22;9540;51.550;7.980;2023-10-08T04:46:15;16.90;99.90
18823;DHT22;9540;51.550;7.980;2023-10-08T04:49:12;16.80;99.90
18823;DHT22;9540;51.550;7.980;2023-10-08T04:51:54;16.70;99.90
18823;DHT22;9540;51.550;7.980;2023-10-08T04:54:24;16.60;99.90
18823;DHT22;9540;51.550;7.980;2023-10-08T04:56:56;16.50;99.90
18823;DHT22;9540;51.550;7.980;2023-10-08T04:59:25;16.40;99.90
18823;DHT22;9540;51.550;7.980;2023-10-08T05:01:59;16.40;99.90
18823;DHT22;9540;51.550;7.980;2023-10-08T05:04:43;16.30;99.90
18823;DHT22;9540;51.550;7.980;2023-10-08T05:07:23;16.20;99.90
18823;DHT22;9540;51.550;7.980;2023-10-08T05:10:26;16.20;99.90
18823;DHT22;9540;51.550;7.980;2023-10-08T05:13:10;16.10;99.90
18823;DHT22;9540;51.550;7.980;2023-10-08T05:15:56;16.10;99.90
18823;DHT22;9540;51.550;7.980;2023-10-08T05:18:32;15.90;99.90
18823;DHT22;9540;51.550;7.980;2023-10-08T05:21:12;15.70;99.90
18823;DHT22;9540;51.550;7.980;2023-10-08T05:23:52;15.30;99.90
18823;DHT22;9540;51.550;7.980;2023-10-08T05:26:38;15.10;99.90
18823;DHT22;9540;51.550;7.980;2023-10-08T05:29:11;14.90;99.90
18823;DHT22;9540;51.550;7.980;2023-10-08T05:31:58;14.70;99.90
18823;DHT22;9540;51.550;7.980;2023-10-08T05:34:38;14.60;99.90
18823;DHT22;9540;51.550;7.980;2023-10-08T05:37:17;14.50;99.90
18823;DHT22;9540;51.550;7.980;2023-10-08T05:40:00;14.40;99.90
18823;DHT22;9540;51.550;7.980;2023-10-08T05:42:46;14.30;99.90
18823;DHT22;9540;51.550;7.980;2023-10-08T05:45:15;14.30;99.90
18823;DHT22;9540;51.550;7.980;2023-10-08T05:47:55;14.30;99.90
18823;DHT22;9540;51.550;7.980;2023-10-08T05:50:40;14.20;99.90
18823;DHT22;9540;51.550;7.980;2023-10-08T05:53:21;14.20;99.90
18823;DHT22;9540;51.550;7.980;2023-10-08T05:56:10;14.10;99.90
18823;DHT22;9540;51.550;7.980;2023-10-08T05:58:54;14.00;99.90
18823;DHT22;9540;51.550;7.980;2023-10-08T06:01:40;14.00;99.90
18823;DHT22;9540;51.550;7.980;2023-10-08T06:04:11;14.00;99.90
18823;DHT22;9540;51.550;7.980;2023-10-08T06:06:56;13.90;99.90
18823;DHT22;9540;51.550;7.980;2023-10-08T06:09:38;13.80;99.90
18823;DHT22;9540;51.550;7.980;2023-10-08T06:12:07;13.80;99.90
18823;DHT22;9540;51.550;7.980;2023-10-08T06:14:45;13.70;99.90
18823;DHT22;9540;51.550;7.980;2023-10-08T06:17:33;13.60;99.90
18823;DHT22;9540;51.550;7.980;2023-10-08T06:20:22;13.50;99.90
18823;DHT22;9540;51.550;7.980;2023-10-08T06:22:52;13.50;99.90
18823;DHT22;9540;51.550;7.980;2023-10-08T06:25:29;13.50;99.90
18823;DHT22;9540;51.550;7.980;2023-10-08T06:27:57;13.40;99.90
18823;DHT22;9540;51.550;7.980;2023-10-08T06:30:24;13.40;99.90
18823;DHT22;9540;51.550;7.980;2023-10-08T06:32:55;13.30;99.90
18823;DHT22;9540;51.550;7.980;2023-10-08T06:35:23;13.20;99.90
18823;DHT22;9540;51.550;7.980;2023-10-08T06:37:54;13.20;99.90
18823;DHT22;9540;51.550;7.980;2023-10-08T06:40:25;13.20;99.90
18823;DHT22;9540;51.550;7.980;2023-10-08T06:43:11;13.10;99.90
18823;DHT22;9540;51.550;7.980;2023-10-08T06:45:43;13.10;99.90
18823;DHT22;9540;51.550;7.980;2023-10-08T06:48:10;13.10;99.90
18823;DHT22;9540;51.550;7.980;2023-10-08T06:50:44;13.00;99.90
18823;DHT22;9540;51.550;7.980;2023-10-08T06:53:11;12.90;99.90
18823;DHT22;9540;51.550;7.980;2023-10-08T06:55:40;12.80;99.90
18823;DHT22;9540;51.550;7.980;2023-10-08T06:58:07;12.60;99.90
18823;DHT22;9540;51.550;7.980;2023-10-08T07:00:37;12.60;99.90
18823;DHT22;9540;51.550;7.980;2023-10-08T07:03:06;12.50;99.90
18823;DHT22;9540;51.550;7.980;2023-10-08T07:05:36;12.50;99.90
18823;DHT22;9540;51.550;7.980;2023-10-08T07:08:09;12.40;99.90
18823;DHT22;9540;51.550;7.980;2023-10-08T07:10:39;12.50;99.90
18823;DHT22;9540;51.550;7.980;2023-10-08T07:13:08;12.40;99.90
18823;DHT22;9540;51.550;7.980;2023-10-08T07:15:37;12.20;99.90
18823;DHT22;9540;51.550;7.980;2023-10-08T07:18:06;12.20;99.90
18823;DHT22;9540;51.550;7.980;2023-10-08T07:20:40;12.20;99.90
18823;DHT22;9540;51.550;7.980;2023-10-08T07:23:08;12.20;99.90
18823;DHT22;9540;51.550;7.980;2023-10-08T07:25:52;12.10;99.90
18823;DHT22;9540;51.550;7.980;2023-10-08T07:28:23;12.00;99.90
18823;DHT22;9540;51.550;7.980;2023-10-08T07:30:52;12.00;99.90
18823;DHT22;9540;51.550;7.980;2023-10-08T07:33:20;11.90;99.90
18823;DHT22;9540;51.550;7.980;2023-10-08T07:35:51;11.90;99.90
18823;DHT22;9540;51.550;7.980;2023-10-08T07:38:25;11.80;99.90
18823;DHT22;9540;51.550;7.980;2023-10-08T07:40:56;11.90;99.90
18823;DHT22;9540;51.550;7.980;2023-10-08T07:43:23;11.80;99.90
18823;DHT22;9540;51.550;7.980;2023-10-08T07:45:52;11.80;99.90
18823;DHT22;9540;51.550;7.980;2023-10-08T07:48:21;11.70;99.90
18823;DHT22;9540;51.550;7.980;2023-10-08T07:50:55;11.80;99.90
18823;DHT22;9540;51.550;7.980;2023-10-08T07:53:23;11.80;99.90
18823;DHT22;9540;51.550;7.980;2023-10-08T07:55:51;11.90;99.90
18823;DHT22;9540;51.550;7.980;2023-10-08T07:58:18;11.90;99.90
18823;DHT22;9540;51.550;7.980;2023-10-08T08:00:45;11.90;99.90
18823;DHT22;9540;51.550;7.980;2023-10-08T08:03:21;11.80;99.90
18823;DHT22;9540;51.550;7.980;2023-10-08T08:05:50;11.80;99.90
18823;DHT22;9540;51.550;7.980;2023-10-08T08:08:20;11.70;99.90
18823;DHT22;9540;51.550;7.980;2023-10-08T08:10:49;11.80;99.90
18823;DHT22;9540;51.550;7.980;2023-10-08T08:13:24;11.70;99.90
18823;DHT22;9540;51.550;7.980;2023-10-08T08:15:54;11.70;99.90
18823;DHT22;9540;51.550;7.980;2023-10-08T08:18:25;11.70;99.90
18823;DHT22;9540;51.550;7.980;2023-10-08T08:21:01;11.60;99.90
18823;DHT22;9540;51.550;7.980;2023-10-08T08:23:29;11.70;99.90
18823;DHT22;9540;51.550;7.980;2023-10-08T08:25:57;11.70;99.90
18823;DHT22;9540;51.550;7.980;2023-10-08T08:28:38;11.70;99.90
18823;DHT22;9540;51.550;7.980;2023-10-08T08:31:06;11.70;99.90
18823;DHT22;9540;51.550;7.980;2023-10-08T08:33:42;11.60;99.90
18823;DHT22;9540;51.550;7.980;2023-10-08T08:36:27;11.60;99.90
18823;DHT22;9540;51.550;7.980;2023-10-08T08:38:54;11.60;99.90
18823;DHT22;9540;51.550;7.980;2023-10-08T08:41:22;11.50;99.90
18823;DHT22;9540;51.550;7.980;2023-10-08T08:43:51;11.50;99.90
18823;DHT22;9540;51.550;7.980;2023-10-08T08:46:32;11.60;99.90
18823;DHT22;9540;51.550;7.980;2023-10-08T08:49:03;11.60;99.90
18823;DHT22;9540;51.550;7.980;2023-10-08T08:51:32;11.70;99.90
18823;DHT22;9540;51.550;7.980;2023-10-08T08:54:01;11.70;99.90
18823;DHT22;9540;51.550;7.980;2023-10-08T08:56:33;11.70;99.90
18823;DHT22;9540;51.550;7.980;2023-10-08T08:59:01;11.70;99.90
18823;DHT22;9540;51.550;7.980;2023-10-08T09:01:30;11.70;99.90
18823;DHT22;9540;51.550;7.980;2023-10-08T09:04:03;11.80;99.90
18823;DHT22;9540;51.550;7.980;2023-10-08T09:06:33;11.90;99.90
18823;DHT22;9540;51.550;7.980;2023-10-08T09:09:00;12.00;99.90
18823;DHT22;9540;51.550;7.980;2023-10-08T09:11:47;12.00;99.90
18823;DHT22;9540;51.550;7.980;2023-10-08T09:14:19;12.00;99.90
18823;DHT22;9540;51.550;7.980;2023-10-08T09:16:46;11.90;99.90
18823;DHT22;9540;51.550;7.980;2023-10-08T09:19:15;12.00;99.90
18823;DHT22;9540;51.550;7.980;2023-10-08T09:21:46;12.00;99.90
18823;DHT22;9540;51.550;7.980;2023-10-08T09:24:26;11.90;99.90
18823;DHT22;9540;51.550;7.980;2023-10-08T09:26:54;11.90;99.90
18823;DHT22;9540;51.550;7.980;2023-10-08T09:29:22;11.80;99.90
18823;DHT22;9540;51.550;7.980;2023-10-08T09:31:53;11.80;99.90
18823;DHT22;9540;51.550;7.980;2023-10-08T09:34:26;11.80;99.90
18823;DHT22;9540;51.550;7.980;2023-10-08T09:36:55;11.90;99.90
18823;DHT22;9540;51.550;7.980;2023-10-08T09:39:23;11.90;99.90
18823;DHT22;9540;51.550;7.980;2023-10-08T09:41:54;12.00;99.90
18823;DHT22;9540;51.550;7.980;2023-10-08T09:44:22;12.00;99.90
18823;DHT22;9540;51.550;7.980;2023-10-08T09:46:53;12.10;99.90
18823;DHT22;9540;51.550;7.980;2023-10-08T09:49:28;12.10;99.90
18823;DHT22;9540;51.550;7.980;2023-10-08T09:52:00;12.20;99.90
18823;DHT22;9540;51.550;7.980;2023-10-08T09:54:30;12.30;99.90
18823;DHT22;9540;51.550;7.980;2023-10-08T09:57:03;12.50;99.90
18823;DHT22;9540;51.550;7.980;2023-10-08T09:59:32;12.60;99.90
18823;DHT22;9540;51.550;7.980;2023-10-08T10:02:00;12.60;99.90
18823;DHT22;9540;51.550;7.980;2023-10-08T10:04:30;12.60;99.90
18823;DHT22;9540;51.550;7.980;2023-10-08T10:06:58;12.60;99.90
18823;DHT22;9540;51.550;7.980;2023-10-08T10:09:35;12.60;99.90
18823;DHT22;9540;51.550;7.980;2023-10-08T10:12:05;12.70;99.90
18823;DHT22;9540;51.550;7.980;2023-10-08T10:14:41;12.80;99.90
18823;DHT22;9540;51.550;7.980;2023-10-08T10:17:10;12.90;99.90
18823;DHT22;9540;51.550;7.980;2023-10-08T10:19:42;13.00;99.90
18823;DHT22;9540;51.550;7.980;2023-10-08T10:22:13;13.10;99.90
18823;DHT22;9540;51.550;7.980;2023-10-08T10:24:41;13.20;99.90
18823;DHT22;9540;51.550;7.980;2023-10-08T10:27:15;13.20;99.90
18823;DHT22;9540;51.550;7.980;2023-10-08T10:29:44;13.40;99.90
18823;DHT22;9540;51.550;7.980;2023-10-08T10:32:14;13.40;99.90
18823;DHT22;9540;51.550;7.980;2023-10-08T10:34:43;13.50;99.90
18823;DHT22;9540;51.550;7.980;2023-10-08T10:37:13;13.50;99.90
18823;DHT22;9540;51.550;7.980;2023-10-08T10:39:56;13.60;99.90
18823;DHT22;9540;51.550;7.980;2023-10-08T10:42:25;13.70;99.90
18823;DHT22;9540;51.550;7.980;2023-10-08T10:44:54;13.70;99.90
18823;DHT22;9540;51.550;7.980;2023-10-08T10:47:24;13.80;99.90
18823;DHT22;9540;51.550;7.980;2023-10-08T10:50:09;13.80;99.90
18823;DHT22;9540;51.550;7.980;2023-10-08T10:53:00;13.80;99.90
18823;DHT22;9540;51.550;7.980;2023-10-08T10:55:35;13.90;99.90
18823;DHT22;9540;51.550;7.980;2023-10-08T10:58:03;13.80;99.90
18823;DHT22;9540;51.550;7.980;2023-10-08T11:00:41;13.80;99.90
18823;DHT22;9540;51.550;7.980;2023-10-08T11:03:22;13.90;99.90
18823;DHT22;9540;51.550;7.980;2023-10-08T11:05:56;13.90;99.90
18823;DHT22;9540;51.550;7.980;2023-10-08T11:08:28;13.90;99.90
18823;DHT22;9540;51.550;7.980;2023-10-08T11:11:00;13.90;99.90
18823;DHT22;9540;51.550;7.980;2023-10-08T11:13:33;14.00;99.90
18823;DHT22;9540;51.550;7.980;2023-10-08T11:16:04;14.00;99.90
18823;DHT22;9540;51.550;7.980;2023-10-08T11:18:33;14.10;99.90
18823;DHT22;9540;51.550;7.980;2023-10-08T11:21:09;14.10;99.90
18823;DHT22;9540;51.550;7.980;2023-10-08T11:23:45;14.20;99.90
18823;DHT22;9540;51.550;7.980;2023-10-08T11:26:22;14.20;99.90
18823;DHT22;9540;51.550;7.980;2023-10-08T11:28:58;14.20;99.90
18823;DHT22;9540;51.550;7.980;2023-10-08T11:31:28;14.30;99.90
18823;DHT22;9540;51.550;7.980;2023-10-08T11:34:00;14.30;99.90
18823;DHT22;9540;51.550;7.980;2023-10-08T11:36:29;14.30;99.90
18823;DHT22;9540;51.550;7.980;2023-10-08T11:39:09;14.40;99.90
18823;DHT22;9540;51.550;7.980;2023-10-08T11:41:37;14.40;99.90
18823;DHT22;9540;51.550;7.980;2023-10-08T11:44:15;14.50;99.90
18823;DHT22;9540;51.550;7.980;2023-10-08T11:46:45;14.50;99.90
18823;DHT22;9540;51.550;7.980;2023-10-08T11:49:17;14.50;99.90
18823;DHT22;9540;51.550;7.980;2023-10-08T11:51:46;14.60;99.90
18823;DHT22;9540;51.550;7.980;2023-10-08T11:54:14;14.60;99.90
18823;DHT22;9540;51.550;7.980;2023-10-08T11:56:41;14.60;99.90
18823;DHT22;9540;51.550;7.980;2023-10-08T11:59:08;14.70;99.90
18823;DHT22;9540;51.550;7.980;2023-10-08T12:01:37;14.80;99.90
18823;DHT22;9540;51.550;7.980;2023-10-08T12:04:08;14.90;99.90
18823;DHT22;9540;51.550;7.980;2023-10-08T12:06:38;14.90;99.90
18823;DHT22;9540;51.550;7.980;2023-10-08T12:09:11;15.00;99.90
18823;DHT22;9540;51.550;7.980;2023-10-08T12:11:38;15.10;99.90
18823;DHT22;9540;51.550;7.980;2023-10-08T12:14:06;15.10;99.90
18823;DHT22;9540;51.550;7.980;2023-10-08T12:16:33;15.10;99.90
18823;DHT22;9540;51.550;7.980;2023-10-08T12:19:02;15.00;99.90
18823;DHT22;9540;51.550;7.980;2023-10-08T12:21:41;14.90;99.90
18823;DHT22;9540;51.550;7.980;2023-10-08T12:24:12;14.90;99.90
18823;DHT22;9540;51.550;7.980;2023-10-08T12:26:39;14.90;99.90
18823;DHT22;9540;51.550;7.980;2023-10-08T12:29:11;14.80;99.90
18823;DHT22;9540;51.550;7.980;2023-10-08T12:31:40;14.90;99.90
18823;DHT22;9540;51.550;7.980;2023-10-08T12:34:07;14.90;99.90
18823;DHT22;9540;51.550;7.980;2023-10-08T12:36:37;14.90;99.90
18823;DHT22;9540;51.550;7.980;2023-10-08T12:39:05;15.00;99.90
18823;DHT22;9540;51.550;7.980;2023-10-08T12:41:37;15.00;99.90
18823;DHT22;9540;51.550;7.980;2023-10-08T12:44:05;14.90;99.90
18823;DHT22;9540;51.550;7.980;2023-10-08T12:46:34;14.90;99.90
18823;DHT22;9540;51.550;7.980;2023-10-08T12:49:02;14.90;99.90
18823;DHT22;9540;51.550;7.980;2023-10-08T12:51:30;15.00;99.90
18823;DHT22;9540;51.550;7.980;2023-10-08T12:53:59;15.00;99.90
18823;DHT22;9540;51.550;7.980;2023-10-08T12:56:32;15.10;99.90
18823;DHT22;9540;51.550;7.980;2023-10-08T12:59:05;15.20;99.90
18823;DHT22;9540;51.550;7.980;2023-10-08T13:01:33;15.20;99.90
18823;DHT22;9540;51.550;7.980;2023-10-08T13:04:02;15.20;99.90
18823;DHT22;9540;51.550;7.980;2023-10-08T13:06:34;15.20;99.90
18823;DHT22;9540;51.550;7.980;2023-10-08T13:09:04;15.30;99.90
18823;DHT22;9540;51.550;7.980;2023-10-08T13:11:38;15.30;99.90
18823;DHT22;9540;51.550;7.980;2023-10-08T13:14:07;15.20;99.90
18823;DHT22;9540;51.550;7.980;2023-10-08T13:16:34;15.20;99.90
18823;DHT22;9540;51.550;7.980;2023-10-08T13:19:03;15.20;99.90
18823;DHT22;9540;51.550;7.980;2023-10-08T13:21:34;15.20;99.90
18823;DHT22;9540;51.550;7.980;2023-10-08T13:24:03;15.10;99.90
18823;DHT22;9540;51.550;7.980;2023-10-08T13:26:34;15.10;99.90
18823;DHT22;9540;51.550;7.980;2023-10-08T13:29:04;15.10;99.90
18823;DHT22;9540;51.550;7.980;2023-10-08T13:31:36;15.00;99.90
18823;DHT22;9540;51.550;7.980;2023-10-08T13:34:03;15.00;99.90
18823;DHT22;9540;51.550;7.980;2023-10-08T13:36:34;15.00;99.90
18823;DHT22;9540;51.550;7.980;2023-10-08T13:39:04;15.00;99.90
18823;DHT22;9540;51.550;7.980;2023-10-08T13:41:34;14.90;99.90
18823;DHT22;9540;51.550;7.980;2023-10-08T13:44:03;14.90;99.90
18823;DHT22;9540;51.550;7.980;2023-10-08T13:46:32;14.90;99.90
18823;DHT22;9540;51.550;7.980;2023-10-08T13:49:03;14.90;99.90
18823;DHT22;9540;51.550;7.980;2023-10-08T13:51:31;14.90;99.90
18823;DHT22;9540;51.550;7.980;2023-10-08T13:54:01;14.90;99.90
18823;DHT22;9540;51.550;7.980;2023-10-08T13:56:32;15.00;99.90
18823;DHT22;9540;51.550;7.980;2023-10-08T13:59:00;15.10;99.90
18823;DHT22;9540;51.550;7.980;2023-10-08T14:01:38;15.10;99.90
18823;DHT22;9540;51.550;7.980;2023-10-08T14:04:07;15.10;99.90
18823;DHT22;9540;51.550;7.980;2023-10-08T14:06:36;15.10;99.90
18823;DHT22;9540;51.550;7.980;2023-10-08T14:09:04;15.00;99.90
18823;DHT22;9540;51.550;7.980;2023-10-08T14:11:35;15.00;99.90
18823;DHT22;9540;51.550;7.980;2023-10-08T14:14:02;15.00;99.90
18823;DHT22;9540;51.550;7.980;2023-10-08T14:16:34;14.90;99.90
18823;DHT22;9540;51.550;7.980;2023-10-08T14:19:01;14.90;99.90
18823;DHT22;9540;51.550;7.980;2023-10-08T14:21:31;14.90;99.90
18823;DHT22;9540;51.550;7.980;2023-10-08T14:24:04;14.90;99.90
18823;DHT22;9540;51.550;7.980;2023-10-08T14:26:41;14.90;99.90
18823;DHT22;9540;51.550;7.980;2023-10-08T14:29:09;14.80;99.90
18823;DHT22;9540;51.550;7.980;2023-10-08T14:31:40;14.80;99.90
18823;DHT22;9540;51.550;7.980;2023-10-08T14:34:10;14.90;99.90
18823;DHT22;9540;51.550;7.980;2023-10-08T14:36:56;14.90;99.90
18823;DHT22;9540;51.550;7.980;2023-10-08T14:39:40;14.90;99.90
18823;DHT22;9540;51.550;7.980;2023-10-08T14:42:25;14.90;99.90
18823;DHT22;9540;51.550;7.980;2023-10-08T14:45:11;14.90;99.90
18823;DHT22;9540;51.550;7.980;2023-10-08T14:47:39;14.90;99.90
18823;DHT22;9540;51.550;7.980;2023-10-08T14:50:08;14.90;99.90
18823;DHT22;9540;51.550;7.980;2023-10-08T14:52:43;14.90;99.90
18823;DHT22;9540;51.550;7.980;2023-10-08T14:55:10;14.90;99.90
18823;DHT22;9540;51.550;7.980;2023-10-08T14:57:38;14.90;99.90
18823;DHT22;9540;51.550;7.980;2023-10-08T15:00:08;14.80;99.90
18823;DHT22;9540;51.550;7.980;2023-10-08T15:02:36;14.80;99.90
18823;DHT22;9540;51.550;7.980;2023-10-08T15:05:04;14.80;99.90
18823;DHT22;9540;51.550;7.980;2023-10-08T15:07:32;14.80;99.90
18823;DHT22;9540;51.550;7.980;2023-10-08T15:10:01;14.80;99.90
18823;DHT22;9540;51.550;7.980;2023-10-08T15:12:28;14.80;99.90
18823;DHT22;9540;51.550;7.980;2023-10-08T15:15:00;14.80;99.90
18823;DHT22;9540;51.550;7.980;2023-10-08T15:17:38;14.80;99.90
18823;DHT22;9540;51.550;7.980;2023-10-08T15:20:07;14.70;99.90
18823;DHT22;9540;51.550;7.980;2023-10-08T15:22:37;14.70;99.90
18823;DHT22;9540;51.550;7.980;2023-10-08T15:25:06;14.70;99.90
18823;DHT22;9540;51.550;7.980;2023-10-08T15:27:33;14.70;99.90
18823;DHT22;9540;51.550;7.980;2023-10-08T15:30:00;14.60;99.90
18823;DHT22;9540;51.550;7.980;2023-10-08T15:32:30;14.60;99.90
18823;DHT22;9540;51.550;7.980;2023-10-08T15:34:57;14.50;99.90
18823;DHT22;9540;51.550;7.980;2023-10-08T15:37:24;14.50;99.90
18823;DHT22;9540;51.550;7.980;2023-10-08T15:39:52;14.40;99.90
18823;DHT22;9540;51.550;7.980;2023-10-08T15:42:21;14.40;99.90
18823;DHT22;9540;51.550;7.980;2023-10-08T15:44:48;14.30;99.90
18823;DHT22;9540;51.550;7.980;2023-10-08T15:47:15;14.30;99.90
18823;DHT22;9540;51.550;7.980;2023-10-08T15:49:43;14.30;99.90
18823;DHT22;9540;51.550;7.980;2023-10-08T15:52:11;14.20;99.90
18823;DHT22;9540;51.550;7.980;2023-10-08T15:54:40;14.30;99.90
18823;DHT22;9540;51.550;7.980;2023-10-08T15:57:09;14.20;99.90
18823;DHT22;9540;51.550;7.980;2023-10-08T15:59:38;14.30;99.90
18823;DHT22;9540;51.550;7.980;2023-10-08T16:02:05;14.20;99.90
18823;DHT22;9540;51.550;7.980;2023-10-08T16:04:32;14.20;99.90
18823;DHT22;9540;51.550;7.980;2023-10-08T16:06:59;14.10;99.90
18823;DHT22;9540;51.550;7.980;2023-10-08T16:09:26;14.10;99.90
18823;DHT22;9540;51.550;7.980;2023-10-08T16:11:54;14.10;99.90
18823;DHT22;9540;51.550;7.980;2023-10-08T16:14:22;14.00;99.90